aviador You're here:

GCFV Decoded Metar

FUERTEVENTURA in SPAIN
Report Time2017-12-18 08:30:00
UTC Time2017-12-18 08:59:15
Flight Rules vfr VFR
Wind040° at 18 kt
W.Decomp.*RWY 01: 14.7 kt HW 10.3 kt RCW
W.Rank040° ranks 1
Current wind is above 040° avg. (13.4)
Visibility9999 m
Phenomena:N/A
Clouds:Few 022 Hf
Scattered 030 Hf
Expected CloudBase > 2,000 ft AGL from Temp-Dew spread
CeilingNone
Temp18°C (ISA +3)
Dew Point13°C (73% RH)
AAT12.5°C
QNH1024 hPa
Density Alt276 ft
Elevation75 ft
Report Wrong Elevation
Raw Report
GCFV 180830Z 04018KT 9999 FEW022 SCT030 18/13 Q1024=

Extra information for GCFV:More info

Metar Taf Metar & Taf Last 4 Metars F.Rules Stats Wind Profile Meteogram Temp Stats Airport Information Weather charts Add Link Nearby VenuesMetar ALERT Operation Metar Decoded Social comments